Sunday, July 22, 2018, 2:32 AM EDT
Back to Local

KBLM, Belmar-farmingdale

Location: Farmingdale, NJ, United States Lat: 40.183
Local Time: 2:32 AM EDT ( 6:32 GMT) Lon: -74.133
Time Zone: US/Eastern Elev: 157 ft

Show me the last for .
Show Decoded

2018-07-22 01:56 METAR KBLM 220556Z AUTO 11019G27KT 5SM -RA BR OVC007 23/22 A2976 RMK AO2 PK WND
                 09032/0515 CIG 005V009 SLP078 P0004 60057 T02280222 10228 20206 57034 =
2018-07-22 01:03 METAR KBLM 220503Z AUTO 09017G29KT 6SM RA BR OVC007 23/22 A2978 RMK AO2 PK WND
                 08029/0501 CIG 004V010 P0001 =
2018-07-22 00:56 METAR KBLM 220456Z AUTO 09021G28KT 7SM -RA BKN005 OVC009 23/22 A2978 RMK AO2 PK
                 WND 09037/0433 CIG 004V007 SLP087 P0015 T02280217 402330172 =
2018-07-21 23:56 METAR KBLM 220356Z AUTO 09019G27KT 6SM RA BR OVC005 23/22 A2983 RMK AO2 PK WND
                 08029/0338 SLP104 P0008 T02280217 =
2018-07-21 23:10 METAR KBLM 220310Z AUTO 09017G21KT 9SM -RA OVC005 22/22 A2986 RMK AO2 CIG
                 003V008 P0000 =
2018-07-21 22:56 METAR KBLM 220256Z AUTO 09015G24KT 10SM -RA OVC003 22/22 A2986 RMK AO2 PK WND
                 09027/0218 SLP112 P0002 60030 T02220217 58021 =
2018-07-21 21:56 METAR KBLM 220156Z AUTO 10016G28KT 7SM -RA OVC003 22/22 A2989 RMK AO2 PK WND
                 10028/0152 SLP125 P0006 T02220217 =
2018-07-21 21:07 METAR KBLM 220107Z AUTO 09014G24KT 4SM RA BR OVC003 22/21 A2991 RMK AO2 P0003 =
2018-07-21 20:56 METAR KBLM 220056Z AUTO 08018G26KT 5SM RA BR OVC005 21/21 A2990 RMK AO2 PK WND
                 06027/0019 SLP127 P0022 T02110206 =
2018-07-21 19:56 METAR KBLM 212356Z AUTO 07016G20KT 3SM +RA BR OVC005 21/20 A2992 RMK AO2 PK WND
                 07028/2335 SLP134 P0020 6//// T02060200 10222 20200 58024 =
2018-07-21 19:37 METAR KBLM 212337Z AUTO 07016G28KT 5SM -RA BR BKN005 OVC011 21/20 A2993 RMK AO2
                 PK WND 07028/2335 P0010 =
2018-07-21 19:29 METAR KBLM 212329Z AUTO 07015G27KT 4SM RA BR SCT005 OVC011 21/20 A2993 RMK AO2
                 PK WND 07027/2324 P0010 =
2018-07-21 18:56 METAR KBLM 212256Z AUTO 06014G23KT 5SM RA BR OVC011 20/19 A2994 RMK AO2 SLP141
                 P0009 T02000189 =
2018-07-21 17:56 METAR KBLM 212156Z AUTO 05012G20KT 4SM RA BR OVC013 20/18 A2997 RMK AO2 SLP151
                 P0010 T02000183 =
2018-07-21 16:56 METAR KBLM 212056Z AUTO 06012G21KT 7SM -RA BKN017 OVC044 21/18 A2999 RMK AO2
                 RAB13 SLP159 P0001 6//// T02060183 56020 =
2018-07-21 15:56 METAR KBLM 211956Z AUTO 07013G20KT 10SM BKN020 OVC026 22/17 A3001 RMK AO2 SLP164
                 T02170172 =
2018-07-21 14:56 METAR KBLM 211856Z AUTO 07013G22KT 10SM BKN022 OVC027 22/17 A3002 RMK AO2 SLP170
                 T02220172 =
2018-07-21 13:56 METAR KBLM 211756Z AUTO 07014KT 10SM BKN024 BKN031 OVC090 22/17 A3005 RMK AO2
                 SLP178 6//// T02220167 10233 20217 58010 =
2018-07-21 12:56 METAR KBLM 211656Z AUTO 08015G20KT 10SM BKN026 23/17 A3006 RMK AO2 SLP181
                 T02280167 =
2018-07-21 12:35 METAR KBLM 211635Z AUTO 07017G22KT 10SM SCT026 23/17 A3006 RMK AO2 =
2018-07-21 11:56 METAR KBLM 211556Z AUTO 07011KT 10SM BKN026 23/17 A3008 RMK AO2 SLP188 T02280167
                 =
2018-07-21 10:56 METAR KBLM 211456Z AUTO 08014G19KT 10SM BKN026 BKN032 23/17 A3008 RMK AO2 SLP188
                 T02280167 50002 =
2018-07-21 10:03 METAR KBLM 211403Z AUTO 11013G20KT 10SM BKN026 23/17 A3008 RMK AO2 =
2018-07-21 09:56 METAR KBLM 211356Z AUTO 07012G17KT 10SM SCT026 23/17 A3008 RMK AO2 SLP189
                 T02330167 =
2018-07-21 08:56 METAR KBLM 211256Z AUTO 10013G19KT 10SM FEW030 23/16 A3008 RMK AO2 SLP190
                 T02280156 =
2018-07-21 06:56 METAR KBLM 211056Z AUTO 09006KT 10SM SCT028 21/16 A3008 RMK AO2 SLP188 T02060156
                 =
2018-07-21 05:56 METAR KBLM 210956Z AUTO 09004KT 10SM SCT033 18/14 A3008 RMK AO2 SLP190 T01830144
                 =
2018-07-21 04:56 METAR KBLM 210856Z AUTO 10003KT 10SM CLR 18/14 A3009 RMK AO2 SLP193 T01780144
                 58003 =
2018-07-21 03:56 METAR KBLM 210756Z AUTO 11003KT 10SM CLR 19/15 A3010 RMK AO2 SLP194 T01890150 =
2018-07-21 02:56 METAR KBLM 210656Z AUTO 11003KT 10SM CLR 20/15 A3010 RMK AO2 SLP196 T02000150 =

Support USWX by starting your Amazon purchase here.